Time;durP1;ratioP1;P1;durP2;ratioP2;P2;SDS_P1;SDS_P2;PMS_P1;PMS_P2;Temp;Humidity;BMP_temperature;BMP_pressure;BME280_temperature;BME280_humidity;BME280_pressure;Samples;Min_cycle;Max_cycle;Signal;HPM_P1;HPM_P2
2023/01/25 00:00:18;;;;;;;0.95;0.77;;;10.30;62.00;;;;;;5013144;28;20060;-86
2023/01/25 00:02:43;;;;;;;0.47;0.47;;;10.20;61.80;;;;;;4997399;28;20480;-88
2023/01/25 00:05:09;;;;;;;0.80;0.70;;;10.20;62.50;;;;;;4996524;28;20034;-87
2023/01/25 00:07:35;;;;;;;0.50;0.50;;;10.30;61.80;;;;;;4996812;28;20033;-85
2023/01/25 00:10:05;;;;;;;0.50;0.50;;;10.30;62.00;;;;;;4996694;28;20022;-85
2023/01/25 00:12:31;;;;;;;0.60;0.60;;;10.40;61.60;;;;;;4997244;28;20033;-87
2023/01/25 00:14:56;;;;;;;0.70;0.63;;;10.40;61.00;;;;;;5012848;28;20030;-88
2023/01/25 00:17:22;;;;;;;0.60;0.60;;;10.30;61.80;;;;;;5012896;28;20033;-88
2023/01/25 00:19:48;;;;;;;0.35;0.35;;;10.10;61.50;;;;;;5013327;28;20069;-88
2023/01/25 00:22:13;;;;;;;0.35;0.35;;;10.00;62.40;;;;;;5000060;28;20033;-87
2023/01/25 00:24:39;;;;;;;0.55;0.55;;;9.80;62.30;;;;;;5002247;28;20042;-86
2023/01/25 00:27:05;;;;;;;0.75;0.70;;;9.40;63.50;;;;;;4996628;28;20030;-85
2023/01/25 00:29:30;;;;;;;0.52;0.52;;;9.70;63.40;;;;;;4996442;28;20022;-88
2023/01/25 00:31:56;;;;;;;0.55;0.55;;;9.70;63.30;;;;;;4995933;28;20110;-87
2023/01/25 00:34:43;;;;;;;0.75;0.70;;;9.90;62.60;;;;;;4997703;28;20014;-88
2023/01/25 00:37:22;;;;;;;0.40;0.40;;;10.00;61.70;;;;;;4996619;28;20045;-88
2023/01/25 00:39:48;;;;;;;0.60;0.60;;;9.90;62.00;;;;;;5012729;28;20101;-88
2023/01/25 00:42:16;;;;;;;0.65;0.63;;;9.60;62.80;;;;;;5012718;28;20416;-87
2023/01/25 00:44:42;;;;;;;0.60;0.60;;;9.40;63.60;;;;;;4996448;28;20056;-88
2023/01/25 00:47:09;;;;;;;0.70;0.70;;;9.60;63.20;;;;;;4996590;28;20045;-88
2023/01/25 00:49:36;;;;;;;0.40;0.40;;;9.70;62.80;;;;;;4996839;28;20080;-88
2023/01/25 00:52:02;;;;;;;0.40;0.40;;;10.00;61.80;;;;;;4996290;28;20026;-88
2023/01/25 00:54:28;;;;;;;0.90;0.82;;;9.90;61.90;;;;;;4996938;28;20022;-87
2023/01/25 00:56:55;;;;;;;0.60;0.60;;;9.80;61.80;;;;;;5015472;28;20048;-87
2023/01/25 00:59:22;;;;;;;0.60;0.60;;;9.80;62.10;;;;;;5000094;28;20068;-87
2023/01/25 01:01:52;;;;;;;0.65;0.63;;;9.90;62.00;;;;;;4999355;28;20068;-88
2023/01/25 01:04:24;;;;;;;1.00;0.70;;;10.00;61.30;;;;;;5016046;28;20022;-88
2023/01/25 01:06:52;;;;;;;0.50;0.43;;;9.90;61.50;;;;;;5016759;28;20412;-88
2023/01/25 01:09:19;;;;;;;0.70;0.70;;;10.10;61.00;;;;;;5000299;28;20045;-88
2023/01/25 01:11:45;;;;;;;0.60;0.60;;;10.30;60.80;;;;;;4998660;28;20076;-87
2023/01/25 01:14:11;;;;;;;0.60;0.60;;;10.50;59.70;;;;;;4999405;28;20021;-86
2023/01/25 01:16:37;;;;;;;1.27;0.90;;;10.40;60.00;;;;;;5016944;28;20026;-87
2023/01/25 01:19:03;;;;;;;0.98;0.80;;;10.00;61.00;;;;;;4999522;28;20024;-87
2023/01/25 01:21:29;;;;;;;0.55;0.50;;;10.20;60.80;;;;;;4999112;28;20014;-88
2023/01/25 01:23:55;;;;;;;0.70;0.70;;;10.20;60.40;;;;;;5003000;28;20045;-88
2023/01/25 01:26:21;;;;;;;0.32;0.32;;;10.20;60.20;;;;;;5018764;28;20349;-87
2023/01/25 01:28:47;;;;;;;0.75;0.70;;;10.20;59.60;;;;;;5019163;28;20854;-88
2023/01/25 01:31:18;;;;;;;0.70;0.55;;;10.20;60.60;;;;;;4999363;28;20038;-89
2023/01/25 01:33:47;;;;;;;1.00;0.73;;;10.10;60.40;;;;;;4995925;28;20034;-88
2023/01/25 01:36:16;;;;;;;1.10;0.70;;;9.80;61.60;;;;;;4996130;28;20026;-88
2023/01/25 01:38:42;;;;;;;0.57;0.50;;;9.60;61.80;;;;;;4996134;28;20102;-89
2023/01/25 01:41:09;;;;;;;0.75;0.70;;;9.80;61.20;;;;;;4998639;28;20014;-90
2023/01/25 01:43:35;;;;;;;0.68;0.60;;;9.90;60.90;;;;;;4998896;28;20021;-86
2023/01/25 01:46:04;;;;;;;0.93;0.70;;;10.20;60.60;;;;;;4998869;28;20041;-87
2023/01/25 01:48:47;;;;;;;1.60;1.00;;;9.90;60.90;;;;;;4999237;28;20068;-86
2023/01/25 01:51:41;;;;;;;0.50;0.50;;;9.90;60.40;;;;;;5004860;28;20018;-88
2023/01/25 01:54:19;;;;;;;0.63;0.60;;;10.00;61.00;;;;;;5005309;28;20014;-87
2023/01/25 01:57:13;;;;;;;0.57;0.57;;;10.00;60.90;;;;;;4998968;28;20026;-89
2023/01/25 01:59:54;;;;;;;0.60;0.60;;;10.10;60.60;;;;;;4998814;28;20461;-88
2023/01/25 02:02:21;;;;;;;0.35;0.35;;;10.30;59.60;;;;;;5015292;28;20041;-87
2023/01/25 02:04:48;;;;;;;0.40;0.40;;;10.30;60.00;;;;;;5015823;28;20018;-86
2023/01/25 02:07:22;;;;;;;0.60;0.60;;;10.40;59.60;;;;;;5015282;28;20124;-88
2023/01/25 02:09:50;;;;;;;0.40;0.40;;;10.40;59.70;;;;;;5014402;28;20052;-88
2023/01/25 02:12:17;;;;;;;0.50;0.50;;;10.60;58.80;;;;;;5015258;28;20018;-87
2023/01/25 02:14:49;;;;;;;0.40;0.40;;;10.50;59.20;;;;;;5010584;28;20412;-88
2023/01/25 02:17:25;;;;;;;0.50;0.50;;;10.60;59.10;;;;;;4998658;28;20469;-88
2023/01/25 02:20:06;;;;;;;0.50;0.50;;;10.70;59.10;;;;;;5000734;28;20061;-88
2023/01/25 02:22:53;;;;;;;0.38;0.38;;;10.80;59.10;;;;;;5017952;28;20014;-88
2023/01/25 02:25:19;;;;;;;0.63;0.60;;;10.90;58.70;;;;;;5017931;28;20060;-88
2023/01/25 02:28:25;;;;;;;1.15;0.80;;;10.70;58.90;;;;;;5017992;28;20036;-88
2023/01/25 02:30:50;;;;;;;1.05;0.77;;;10.50;59.10;;;;;;4931440;29;20027;-88
2023/01/25 02:33:28;;;;;;;0.30;0.30;;;10.40;59.00;;;;;;4936406;29;20051;-87
2023/01/25 02:36:30;;;;;;;0.38;0.38;;;10.40;59.30;;;;;;4920422;29;20106;-88
2023/01/25 02:39:07;;;;;;;0.70;0.63;;;10.40;59.50;;;;;;4882887;29;20065;-87
2023/01/25 02:41:40;;;;;;;0.60;0.60;;;10.40;59.30;;;;;;4897953;29;20033;-87
2023/01/25 02:44:15;;;;;;;0.55;0.55;;;10.50;59.00;;;;;;4897995;29;20434;-88
2023/01/25 02:46:46;;;;;;;0.65;0.60;;;10.40;59.20;;;;;;4898329;29;20098;-87
2023/01/25 02:49:19;;;;;;;0.63;0.50;;;10.40;59.50;;;;;;4897821;29;20029;-86
2023/01/25 02:51:47;;;;;;;0.85;0.60;;;10.40;59.40;;;;;;4898134;29;20036;-88
2023/01/25 02:54:16;;;;;;;1.40;0.82;;;10.50;59.10;;;;;;4897948;29;20087;-88
2023/01/25 02:56:55;;;;;;;0.57;0.57;;;10.50;58.80;;;;;;4898255;29;20040;-88
2023/01/25 02:59:21;;;;;;;0.98;0.70;;;10.20;59.20;;;;;;4897781;29;20077;-88
2023/01/25 03:01:47;;;;;;;1.23;0.93;;;10.00;59.70;;;;;;4897816;29;20425;-89
2023/01/25 03:04:13;;;;;;;0.47;0.47;;;10.00;59.60;;;;;;4898137;29;20085;-88
2023/01/25 03:06:40;;;;;;;0.70;0.70;;;10.00;59.80;;;;;;4898172;29;20032;-88
2023/01/25 03:09:08;;;;;;;0.50;0.50;;;10.10;60.10;;;;;;4953737;29;20122;-88
2023/01/25 03:11:34;;;;;;;0.57;0.55;;;10.30;60.00;;;;;;4938974;29;20023;-88
2023/01/25 03:14:00;;;;;;;0.50;0.50;;;10.50;59.10;;;;;;4938651;29;20074;-88
2023/01/25 03:16:26;;;;;;;0.60;0.60;;;10.40;59.40;;;;;;4989962;28;20049;-88
2023/01/25 03:18:53;;;;;;;0.40;0.40;;;10.40;59.10;;;;;;4999290;28;20064;-88
2023/01/25 03:21:20;;;;;;;0.38;0.38;;;10.30;58.80;;;;;;5016322;28;20021;-87
2023/01/25 03:23:47;;;;;;;1.08;0.70;;;10.10;59.90;;;;;;5017474;28;20411;-88
2023/01/25 03:26:17;;;;;;;0.65;0.60;;;10.00;60.30;;;;;;5017122;28;20033;-87
2023/01/25 03:28:43;;;;;;;0.65;0.63;;;10.00;59.70;;;;;;5016151;28;20079;-88
2023/01/25 03:31:11;;;;;;;1.50;0.85;;;10.00;59.80;;;;;;4996986;28;20026;-88
2023/01/25 03:33:38;;;;;;;0.50;0.50;;;10.00;59.80;;;;;;5014360;28;20030;-88
2023/01/25 03:36:04;;;;;;;0.57;0.50;;;10.10;59.70;;;;;;4997442;28;20366;-88
2023/01/25 03:38:39;;;;;;;0.40;0.40;;;10.30;59.40;;;;;;4997020;28;20036;-87
2023/01/25 03:41:05;;;;;;;0.60;0.60;;;10.40;59.00;;;;;;4996548;28;20022;-87
2023/01/25 03:43:30;;;;;;;0.90;0.63;;;10.30;59.20;;;;;;5013959;28;20116;-87
2023/01/25 03:46:00;;;;;;;0.70;0.70;;;10.30;59.20;;;;;;5013240;28;20018;-88
2023/01/25 03:48:29;;;;;;;0.93;0.77;;;10.40;58.80;;;;;;5013541;28;20038;-87
2023/01/25 03:50:56;;;;;;;1.20;0.75;;;10.30;59.40;;;;;;5014377;28;20075;-88
2023/01/25 03:53:28;;;;;;;0.63;0.63;;;10.30;59.10;;;;;;5016215;28;20025;-88
2023/01/25 03:55:59;;;;;;;0.98;0.77;;;10.00;59.00;;;;;;5016696;28;20052;-88
2023/01/25 03:58:25;;;;;;;0.35;0.35;;;9.80;60.50;;;;;;5002194;28;20045;-87
2023/01/25 04:00:53;;;;;;;0.95;0.70;;;9.80;59.70;;;;;;4993550;28;20105;-87
2023/01/25 04:03:20;;;;;;;0.50;0.50;;;9.90;60.00;;;;;;4993402;28;20030;-88
2023/01/25 04:05:46;;;;;;;0.50;0.50;;;10.20;59.60;;;;;;4993335;28;20050;-87
2023/01/25 04:08:12;;;;;;;0.57;0.55;;;10.40;59.10;;;;;;4997005;28;20066;-87
2023/01/25 04:10:37;;;;;;;0.47;0.47;;;10.50;58.80;;;;;;5013303;28;20026;-88
2023/01/25 04:13:03;;;;;;;0.60;0.60;;;10.60;58.20;;;;;;5013008;28;20026;-87
2023/01/25 04:15:29;;;;;;;0.70;0.70;;;10.50;58.00;;;;;;5013324;28;20065;-88
2023/01/25 04:17:55;;;;;;;0.57;0.57;;;10.30;58.90;;;;;;5015406;28;20117;-86
2023/01/25 04:20:21;;;;;;;0.40;0.40;;;10.40;58.40;;;;;;5016105;28;20049;-87
2023/01/25 04:22:47;;;;;;;0.70;0.70;;;10.50;58.30;;;;;;5016532;28;20022;-88
2023/01/25 04:25:15;;;;;;;0.50;0.50;;;10.50;58.00;;;;;;5016065;28;20088;-87
2023/01/25 04:27:41;;;;;;;0.65;0.65;;;10.40;58.40;;;;;;5009414;28;20080;-86
2023/01/25 04:30:07;;;;;;;0.60;0.60;;;10.50;58.00;;;;;;4996270;28;20014;-87
2023/01/25 04:32:39;;;;;;;1.20;0.80;;;10.40;58.40;;;;;;5015246;28;20030;-85
2023/01/25 04:35:05;;;;;;;0.70;0.70;;;10.00;59.10;;;;;;5000178;28;20060;-85
2023/01/25 04:37:30;;;;;;;0.57;0.57;;;9.70;59.40;;;;;;5000186;28;20029;-84
2023/01/25 04:39:56;;;;;;;0.50;0.50;;;9.50;60.00;;;;;;5009394;28;20018;-85
2023/01/25 04:42:22;;;;;;;0.32;0.32;;;9.40;60.20;;;;;;5014270;28;20037;-87
2023/01/25 04:44:47;;;;;;;0.65;0.65;;;9.30;61.00;;;;;;4999931;28;20020;-87
2023/01/25 04:47:13;;;;;;;0.30;0.30;;;9.50;59.90;;;;;;5000285;28;20037;-88
2023/01/25 04:49:39;;;;;;;0.52;0.52;;;9.50;60.20;;;;;;5000036;28;20164;-88
2023/01/25 04:52:04;;;;;;;0.40;0.40;;;9.70;59.80;;;;;;5000221;28;20480;-87
2023/01/25 04:54:30;;;;;;;0.95;0.85;;;9.80;58.60;;;;;;5017201;28;20018;-89
2023/01/25 04:56:56;;;;;;;0.32;0.32;;;9.70;59.80;;;;;;5016171;28;20030;-88
2023/01/25 04:59:21;;;;;;;0.47;0.47;;;9.70;59.40;;;;;;5016894;28;20080;-88
2023/01/25 05:01:47;;;;;;;0.43;0.43;;;9.90;59.70;;;;;;5018295;28;20034;-89
2023/01/25 05:04:18;;;;;;;0.65;0.65;;;9.80;59.60;;;;;;5018793;28;20534;-89
2023/01/25 05:06:44;;;;;;;0.30;0.30;;;9.80;59.40;;;;;;5019768;28;20068;-89
2023/01/25 05:09:10;;;;;;;0.40;0.40;;;10.00;58.90;;;;;;5013650;28;20022;-88
2023/01/25 05:11:35;;;;;;;0.57;0.57;;;9.90;59.10;;;;;;4999378;28;20026;-89
2023/01/25 05:14:01;;;;;;;0.50;0.50;;;10.00;59.00;;;;;;5001569;28;20029;-88
2023/01/25 05:16:27;;;;;;;0.40;0.40;;;10.10;58.50;;;;;;5015752;28;20357;-89
2023/01/25 05:18:54;;;;;;;0.60;0.60;;;10.20;58.70;;;;;;5016311;28;20057;-88
2023/01/25 05:24:05;;;;;;;0.30;0.30;;;10.50;57.80;;;;;;5021600;28;20542;-89
2023/01/25 05:29:14;;;;;;;0.60;0.60;;;10.10;58.40;;;;;;5036923;28;20037;-89
2023/01/25 05:31:40;;;;;;;0.80;0.70;;;10.10;58.20;;;;;;5035876;28;20049;-89
2023/01/25 05:34:07;;;;;;;2.05;1.13;;;10.20;58.00;;;;;;5018989;28;20057;-88
2023/01/25 05:36:33;;;;;;;0.77;0.63;;;10.10;57.70;;;;;;5018272;28;20468;-89
2023/01/25 05:39:07;;;;;;;1.17;0.80;;;10.00;58.40;;;;;;5018858;28;20028;-89
2023/01/25 05:41:33;;;;;;;0.30;0.30;;;9.80;58.60;;;;;;5019051;28;20032;-88
2023/01/25 05:43:59;;;;;;;0.35;0.35;;;9.50;58.90;;;;;;5017202;28;20021;-89
2023/01/25 05:46:27;;;;;;;1.27;0.80;;;9.30;59.30;;;;;;5018419;28;20120;-89
2023/01/25 05:48:52;;;;;;;0.40;0.40;;;9.50;59.30;;;;;;5018482;28;20025;-89
2023/01/25 05:51:18;;;;;;;0.60;0.60;;;9.80;59.00;;;;;;5018545;28;20025;-88
2023/01/25 05:53:44;;;;;;;0.70;0.55;;;9.80;58.30;;;;;;5018942;28;20022;-89
2023/01/25 05:56:10;;;;;;;1.05;0.80;;;9.80;58.40;;;;;;5017793;28;20060;-89
2023/01/25 05:58:37;;;;;;;0.60;0.60;;;9.90;57.80;;;;;;5018823;28;20048;-87
2023/01/25 06:01:04;;;;;;;0.30;0.30;;;9.90;57.90;;;;;;5018760;28;20367;-89
2023/01/25 06:03:30;;;;;;;0.60;0.60;;;9.90;57.90;;;;;;5018378;28;20022;-89
2023/01/25 06:06:02;;;;;;;0.30;0.30;;;9.80;58.40;;;;;;5017439;28;20042;-89
2023/01/25 06:08:29;;;;;;;0.57;0.57;;;9.60;58.40;;;;;;5017208;28;20064;-89
2023/01/25 06:10:55;;;;;;;0.70;0.70;;;9.70;58.70;;;;;;5018086;28;20108;-90
2023/01/25 06:13:21;;;;;;;0.50;0.50;;;9.70;58.60;;;;;;5018012;28;20132;-88
2023/01/25 06:15:56;;;;;;;0.63;0.60;;;9.80;58.00;;;;;;5018104;28;20018;-89
2023/01/25 06:18:26;;;;;;;0.40;0.40;;;9.80;57.90;;;;;;5017617;28;20427;-90
2023/01/25 06:20:54;;;;;;;0.60;0.60;;;9.80;58.00;;;;;;5018474;28;20056;-89
2023/01/25 06:23:20;;;;;;;0.30;0.30;;;9.70;58.10;;;;;;5018089;28;20030;-89
2023/01/25 06:25:46;;;;;;;0.75;0.65;;;9.60;58.00;;;;;;5013890;28;20100;-89
2023/01/25 06:28:12;;;;;;;0.70;0.55;;;9.10;59.50;;;;;;5014394;28;20036;-89
2023/01/25 06:30:37;;;;;;;0.40;0.40;;;8.90;59.60;;;;;;5014297;28;20096;-89
2023/01/25 06:33:03;;;;;;;0.40;0.40;;;8.70;61.20;;;;;;5014376;28;20034;-89
2023/01/25 06:35:31;;;;;;;0.93;0.80;;;8.90;60.40;;;;;;5013684;28;20118;-89
2023/01/25 06:37:58;;;;;;;0.43;0.43;;;9.10;60.00;;;;;;5013125;28;20111;-90
2023/01/25 06:40:24;;;;;;;0.82;0.70;;;9.30;58.90;;;;;;5013470;28;20022;-90
2023/01/25 06:42:50;;;;;;;0.60;0.60;;;9.40;59.20;;;;;;5014272;28;20483;-90
2023/01/25 06:45:16;;;;;;;0.85;0.70;;;9.50;58.50;;;;;;5010823;28;20050;-90
2023/01/25 06:47:42;;;;;;;0.30;0.30;;;9.40;58.50;;;;;;5005205;28;20492;-91
2023/01/25 06:50:09;;;;;;;0.70;0.63;;;9.40;58.60;;;;;;5024820;28;20029;-90
2023/01/25 06:52:35;;;;;;;0.80;0.70;;;9.50;58.90;;;;;;5013660;28;20026;-90
2023/01/25 06:55:06;;;;;;;0.70;0.60;;;9.40;58.50;;;;;;5012587;28;20030;-89
2023/01/25 06:57:35;;;;;;;0.52;0.52;;;9.50;58.90;;;;;;5014713;28;20029;-90
2023/01/25 07:00:01;;;;;;;0.80;0.68;;;9.60;58.60;;;;;;5029249;28;20468;-90
2023/01/25 07:02:33;;;;;;;0.60;0.60;;;9.50;58.40;;;;;;5012453;28;20028;-88
2023/01/25 07:04:58;;;;;;;0.40;0.40;;;9.40;58.80;;;;;;5016706;28;20014;-88
2023/01/25 07:07:24;;;;;;;0.50;0.50;;;9.50;58.80;;;;;;5013769;28;20030;-89
2023/01/25 07:09:50;;;;;;;0.50;0.50;;;9.50;58.40;;;;;;5013482;28;20022;-89
2023/01/25 07:12:16;;;;;;;1.00;0.70;;;9.40;59.20;;;;;;5013488;28;20042;-89
2023/01/25 07:14:42;;;;;;;0.40;0.40;;;9.40;58.60;;;;;;5013620;28;20079;-89
2023/01/25 07:17:07;;;;;;;0.50;0.50;;;9.30;59.30;;;;;;5014183;28;20068;-90
2023/01/25 07:19:33;;;;;;;0.47;0.47;;;9.00;59.30;;;;;;5012890;28;20018;-89
2023/01/25 07:21:59;;;;;;;0.30;0.30;;;8.90;60.20;;;;;;5013417;28;20036;-87
2023/01/25 07:24:25;;;;;;;0.95;0.73;;;9.20;59.50;;;;;;5012759;28;20042;-89
2023/01/25 07:26:51;;;;;;;0.75;0.60;;;9.40;59.20;;;;;;5029079;28;20038;-89
2023/01/25 07:29:20;;;;;;;0.70;0.70;;;9.50;58.70;;;;;;5029961;28;20018;-89
2023/01/25 07:31:46;;;;;;;0.60;0.60;;;9.40;58.80;;;;;;5027784;28;20028;-89
2023/01/25 07:34:12;;;;;;;0.50;0.50;;;9.40;59.10;;;;;;5012139;28;20010;-88
2023/01/25 07:36:39;;;;;;;0.55;0.52;;;9.60;58.40;;;;;;5028176;28;21098;-88
2023/01/25 07:39:05;;;;;;;0.45;0.45;;;9.60;59.00;;;;;;5011646;28;20089;-89
2023/01/25 07:41:31;;;;;;;0.32;0.32;;;9.80;58.50;;;;;;5027966;28;20017;-90
2023/01/25 07:43:57;;;;;;;0.40;0.40;;;9.90;58.20;;;;;;5028452;28;20030;-91
2023/01/25 07:46:23;;;;;;;0.55;0.50;;;9.90;58.60;;;;;;5028582;28;20018;-89
2023/01/25 07:48:51;;;;;;;0.50;0.50;;;10.00;58.10;;;;;;5028525;28;20112;-88
2023/01/25 07:51:22;;;;;;;0.63;0.60;;;10.10;58.00;;;;;;5011954;28;20018;-89
2023/01/25 07:54:00;;;;;;;0.68;0.68;;;10.20;57.90;;;;;;5011931;28;20484;-88
2023/01/25 07:56:34;;;;;;;0.43;0.43;;;10.20;57.50;;;;;;5011039;28;20102;-87
2023/01/25 07:59:03;;;;;;;0.60;0.60;;;10.10;57.80;;;;;;5012975;28;20022;-89
2023/01/25 08:01:33;;;;;;;0.40;0.40;;;9.90;58.30;;;;;;5011846;28;20026;-89
2023/01/25 08:04:00;;;;;;;;;;;10.00;58.40;;;;;;5011883;28;20022;-89
2023/01/25 08:06:34;;;;;;;0.73;0.73;;;9.90;58.40;;;;;;5029724;28;19905;-88
2023/01/25 08:09:05;;;;;;;0.50;0.50;;;9.80;58.30;;;;;;5032127;28;20049;-88
2023/01/25 08:11:31;;;;;;;0.30;0.30;;;10.10;58.50;;;;;;5031590;28;20157;-88
2023/01/25 08:13:57;;;;;;;0.50;0.50;;;10.10;57.50;;;;;;5032118;28;20108;-89
2023/01/25 08:16:25;;;;;;;0.50;0.50;;;10.10;57.70;;;;;;5015482;28;20010;-89
2023/01/25 08:18:57;;;;;;;0.40;0.40;;;10.40;58.00;;;;;;5015697;28;20026;-87
2023/01/25 08:21:24;;;;;;;0.80;0.70;;;10.50;57.70;;;;;;5015515;28;20064;-88
2023/01/25 08:23:50;;;;;;;0.65;0.65;;;10.50;56.60;;;;;;5025560;28;20018;-88
2023/01/25 08:26:16;;;;;;;0.50;0.50;;;10.20;57.40;;;;;;5014711;28;20392;-88
2023/01/25 08:28:43;;;;;;;0.43;0.43;;;9.90;58.70;;;;;;5015272;28;20767;-89
2023/01/25 08:31:17;;;;;;;0.47;0.47;;;10.20;58.00;;;;;;5010695;28;20014;-88
2023/01/25 08:33:45;;;;;;;0.40;0.40;;;10.30;57.90;;;;;;5019333;28;20018;-88
2023/01/25 08:36:12;;;;;;;0.55;0.55;;;10.50;57.50;;;;;;4997956;28;20022;-88
2023/01/25 08:38:39;;;;;;;0.45;0.45;;;10.20;57.90;;;;;;5015123;28;20425;-89
2023/01/25 08:41:06;;;;;;;0.32;0.32;;;10.30;58.00;;;;;;4998836;28;20021;-88
2023/01/25 08:43:32;;;;;;;0.35;0.35;;;10.40;57.70;;;;;;5016340;28;20021;-88
2023/01/25 08:45:58;;;;;;;0.40;0.40;;;10.60;57.30;;;;;;5015344;28;20030;-88
2023/01/25 08:48:24;;;;;;;0.40;0.40;;;10.70;57.20;;;;;;5000287;28;20041;-89
2023/01/25 08:50:49;;;;;;;0.40;0.40;;;10.70;57.40;;;;;;5016216;28;20021;-88
2023/01/25 08:53:15;;;;;;;0.32;0.32;;;10.80;57.10;;;;;;5016276;28;20033;-90
2023/01/25 08:55:42;;;;;;;0.40;0.40;;;11.10;57.00;;;;;;4999700;28;20028;-87
2023/01/25 08:58:12;;;;;;;0.30;0.30;;;11.20;55.80;;;;;;5015914;28;20457;-88
2023/01/25 09:00:39;;;;;;;0.40;0.40;;;11.40;56.40;;;;;;4996617;28;20015;-88
2023/01/25 09:03:07;;;;;;;0.40;0.40;;;11.70;55.80;;;;;;4995717;28;20030;-88
2023/01/25 09:05:33;;;;;;;0.40;0.40;;;11.80;55.10;;;;;;4997874;28;20030;-88
2023/01/25 09:08:00;;;;;;;0.30;0.30;;;11.50;55.30;;;;;;4996938;28;20116;-87
2023/01/25 09:10:25;;;;;;;0.43;0.43;;;11.20;56.50;;;;;;4999214;28;20116;-88
2023/01/25 09:12:51;;;;;;;0.30;0.30;;;11.30;56.10;;;;;;4999432;28;20105;-88
2023/01/25 09:15:17;;;;;;;0.43;0.43;;;11.30;55.90;;;;;;4998925;28;20068;-87
2023/01/25 09:17:42;;;;;;;0.40;0.40;;;11.20;55.60;;;;;;4999355;28;20032;-87
2023/01/25 09:20:09;;;;;;;0.55;0.55;;;11.30;56.70;;;;;;4999671;28;20029;-87
2023/01/25 09:22:35;;;;;;;0.35;0.35;;;11.60;55.80;;;;;;5000079;28;20079;-87
2023/01/25 09:25:00;;;;;;;0.35;0.35;;;11.70;56.10;;;;;;5007605;28;20049;-87
2023/01/25 09:27:26;;;;;;;0.50;0.50;;;11.80;55.80;;;;;;5015300;28;20033;-87
2023/01/25 09:29:52;;;;;;;0.40;0.40;;;11.80;55.70;;;;;;5015241;28;20029;-86
2023/01/25 09:32:18;;;;;;;0.38;0.38;;;11.70;55.50;;;;;;5015324;28;20057;-86
2023/01/25 09:34:43;;;;;;;0.40;0.40;;;11.30;55.80;;;;;;5015063;28;20030;-87
2023/01/25 09:37:09;;;;;;;0.40;0.40;;;11.00;56.30;;;;;;5015269;28;20029;-87
2023/01/25 09:39:35;;;;;;;0.30;0.30;;;11.10;56.60;;;;;;5015123;28;20017;-88
2023/01/25 09:42:12;;;;;;;0.40;0.40;;;11.20;55.80;;;;;;5015392;28;20028;-87
2023/01/25 09:44:47;;;;;;;0.40;0.40;;;11.00;57.10;;;;;;5015159;28;20033;-88
2023/01/25 09:47:26;;;;;;;0.40;0.40;;;11.20;56.80;;;;;;5014881;28;20038;-87
2023/01/25 09:50:04;;;;;;;0.30;0.30;;;11.60;56.40;;;;;;5015091;28;20044;-87
2023/01/25 09:52:49;;;;;;;0.47;0.47;;;11.30;55.80;;;;;;5015035;28;20033;-86
2023/01/25 09:55:17;;;;;;;0.30;0.30;;;10.60;58.00;;;;;;5015059;28;20022;-87
2023/01/25 09:57:46;;;;;;;0.30;0.30;;;10.80;57.70;;;;;;5015052;28;20426;-87
2023/01/25 10:00:22;;;;;;;0.40;0.40;;;11.10;57.50;;;;;;5014477;28;20113;-87
2023/01/25 10:03:15;;;;;;;0.30;0.30;;;11.30;56.70;;;;;;4998488;28;20373;-87
2023/01/25 10:05:46;;;;;;;0.30;0.30;;;11.10;57.60;;;;;;4991218;28;20061;-86
2023/01/25 10:08:15;;;;;;;0.30;0.30;;;10.80;58.00;;;;;;5014643;28;20532;-87
2023/01/25 10:10:42;;;;;;;0.30;0.30;;;10.80;58.80;;;;;;5014354;28;20361;-86
2023/01/25 10:13:17;;;;;;;0.38;0.38;;;10.80;58.70;;;;;;5014527;28;20030;-87
2023/01/25 10:15:49;;;;;;;0.25;0.25;;;10.90;58.80;;;;;;5014511;28;20018;-87
2023/01/25 10:18:24;;;;;;;0.30;0.30;;;11.10;58.30;;;;;;5014390;28;20049;-87
2023/01/25 10:20:56;;;;;;;0.30;0.30;;;11.30;57.90;;;;;;5014383;28;20346;-86
2023/01/25 10:23:34;;;;;;;0.20;0.20;;;11.50;57.40;;;;;;5014247;28;20032;-87
2023/01/25 10:26:08;;;;;;;0.35;0.35;;;11.80;56.90;;;;;;5014362;28;20045;-86
2023/01/25 10:28:40;;;;;;;0.30;0.30;;;11.60;56.60;;;;;;5013663;28;20030;-87
2023/01/25 10:31:26;;;;;;;0.30;0.30;;;12.00;56.90;;;;;;5014278;28;20022;-86
2023/01/25 10:33:53;;;;;;;0.20;0.20;;;11.70;57.10;;;;;;5013966;28;20036;-87
2023/01/25 10:36:27;;;;;;;0.30;0.30;;;11.80;57.50;;;;;;5014190;28;20022;-86
2023/01/25 10:38:58;;;;;;;0.20;0.20;;;11.60;57.50;;;;;;5014014;28;20096;-87
2023/01/25 10:41:37;;;;;;;0.20;0.20;;;11.90;57.00;;;;;;5014357;28;20042;-87
2023/01/25 10:44:24;;;;;;;0.20;0.20;;;11.40;57.40;;;;;;5013918;28;20026;-87
2023/01/25 10:47:10;;;;;;;0.30;0.30;;;11.30;58.00;;;;;;5014490;28;20120;-87
2023/01/25 10:49:41;;;;;;;0.30;0.30;;;11.80;57.50;;;;;;4997539;28;20028;-87
2023/01/25 10:52:21;;;;;;;0.40;0.40;;;12.10;57.30;;;;;;5013799;28;20021;-86
2023/01/25 10:54:51;;;;;;;0.30;0.30;;;12.40;56.80;;;;;;5013942;28;20056;-87
2023/01/25 10:57:18;;;;;;;;;;;12.50;56.70;;;;;;5014158;28;20548;-87
2023/01/25 10:59:47;;;;;;;0.30;0.30;;;12.80;56.20;;;;;;5013544;28;19908;-87
2023/01/25 11:02:31;;;;;;;0.30;0.30;;;12.80;55.70;;;;;;5013610;28;20018;-87
2023/01/25 11:04:56;;;;;;;0.40;0.40;;;12.80;55.80;;;;;;5013707;28;20034;-87
2023/01/25 11:07:30;;;;;;;0.30;0.30;;;12.90;55.70;;;;;;5013314;28;20053;-88
2023/01/25 11:09:55;;;;;;;0.30;0.30;;;12.70;56.10;;;;;;5013244;28;20057;-86
2023/01/25 11:12:21;;;;;;;0.20;0.20;;;12.70;56.40;;;;;;5013504;28;20057;-86
2023/01/25 11:14:51;;;;;;;0.30;0.30;;;12.80;56.50;;;;;;5013569;28;20053;-85
2023/01/25 11:17:30;;;;;;;0.30;0.30;;;12.70;56.50;;;;;;5013448;28;20057;-87
2023/01/25 11:20:17;;;;;;;0.30;0.30;;;12.90;56.80;;;;;;5013342;28;20029;-86
2023/01/25 11:22:56;;;;;;;0.30;0.30;;;13.00;56.30;;;;;;5013760;28;20037;-87
2023/01/25 11:25:27;;;;;;;0.30;0.30;;;12.90;56.30;;;;;;5001425;28;20046;-86
2023/01/25 11:28:20;;;;;;;0.30;0.30;;;12.60;56.60;;;;;;5013081;28;20034;-86
2023/01/25 11:30:46;;;;;;;0.30;0.30;;;12.40;57.30;;;;;;5013363;28;20029;-86
2023/01/25 11:33:14;;;;;;;0.22;0.22;;;12.10;57.80;;;;;;5013242;28;20033;-86
2023/01/25 11:35:55;;;;;;;0.20;0.20;;;12.30;57.90;;;;;;5013164;28;20377;-86
2023/01/25 11:38:22;;;;;;;0.30;0.30;;;12.60;57.20;;;;;;4996649;28;20420;-86
2023/01/25 11:41:03;;;;;;;0.30;0.30;;;12.80;57.20;;;;;;5012111;28;20064;-86
2023/01/25 11:44:01;;;;;;;0.32;0.32;;;11.80;58.90;;;;;;4996785;28;20025;-86
2023/01/25 11:46:51;;;;;;;0.40;0.40;;;11.70;59.50;;;;;;5012897;28;20503;-87
2023/01/25 11:49:26;;;;;;;0.30;0.30;;;12.20;58.40;;;;;;4996784;28;20032;-86
2023/01/25 11:52:14;;;;;;;0.30;0.30;;;12.40;57.70;;;;;;5013195;28;20030;-86
2023/01/25 11:55:06;;;;;;;0.30;0.30;;;12.60;56.50;;;;;;5012982;28;20080;-86
2023/01/25 11:57:48;;;;;;;0.20;0.20;;;12.40;57.30;;;;;;4934530;29;20032;-86
2023/01/25 12:00:21;;;;;;;0.30;0.30;;;12.10;57.90;;;;;;4934768;29;20051;-86
2023/01/25 12:03:14;;;;;;;0.30;0.30;;;12.10;58.30;;;;;;4934550;29;20028;-87
2023/01/25 12:06:07;;;;;;;0.20;0.20;;;12.80;58.00;;;;;;4918674;29;20489;-87
2023/01/25 12:09:02;;;;;;;0.30;0.30;;;13.30;57.00;;;;;;4934310;29;20055;-86
2023/01/25 12:11:48;;;;;;;0.30;0.30;;;13.60;55.70;;;;;;4934750;29;20027;-87
2023/01/25 12:14:38;;;;;;;0.20;0.20;;;13.40;55.20;;;;;;4934499;29;20411;-86
2023/01/25 12:17:30;;;;;;;0.25;0.25;;;13.10;55.90;;;;;;4934269;29;20039;-87
2023/01/25 12:20:17;;;;;;;0.30;0.30;;;13.30;55.90;;;;;;4929996;29;20031;-86
2023/01/25 12:23:04;;;;;;;0.30;0.30;;;13.40;55.60;;;;;;4934296;29;20046;-87
2023/01/25 12:25:43;;;;;;;0.30;0.30;;;13.20;56.20;;;;;;4933917;29;20043;-86
2023/01/25 12:28:22;;;;;;;0.20;0.20;;;13.00;56.80;;;;;;4934261;29;20047;-86
2023/01/25 12:30:59;;;;;;;0.30;0.30;;;12.90;56.70;;;;;;4934263;29;20028;-86
2023/01/25 12:33:35;;;;;;;0.30;0.30;;;13.10;56.50;;;;;;4938394;28;20130;-86
2023/01/25 12:36:04;;;;;;;0.30;0.30;;;13.20;56.60;;;;;;4996307;28;20460;-86
2023/01/25 12:38:52;;;;;;;0.30;0.30;;;13.50;56.10;;;;;;4996161;28;20381;-86
2023/01/25 12:41:56;;;;;;;0.20;0.20;;;13.50;55.90;;;;;;4995990;28;20022;-86
2023/01/25 12:44:46;;;;;;;0.30;0.30;;;13.60;55.60;;;;;;4995883;28;20017;-87
2023/01/25 12:47:24;;;;;;;;;;;13.60;55.40;;;;;;4996676;28;20040;-86
2023/01/25 12:49:56;;;;;;;0.30;0.30;;;13.50;55.20;;;;;;4995997;28;19901;-85
2023/01/25 12:52:51;;;;;;;0.30;0.30;;;13.70;55.20;;;;;;4997209;28;20018;-86
2023/01/25 12:55:18;;;;;;;0.30;0.30;;;13.80;55.10;;;;;;4999844;28;20026;-87
2023/01/25 12:58:03;;;;;;;0.30;0.30;;;13.70;55.30;;;;;;4999563;28;20014;-86
2023/01/25 13:01:19;;;;;;;0.30;0.30;;;13.60;55.60;;;;;;4999494;28;20418;-86
2023/01/25 13:04:09;;;;;;;0.30;0.30;;;13.40;55.60;;;;;;4975901;28;20027;-86
2023/01/25 13:06:40;;;;;;;0.20;0.20;;;13.50;55.80;;;;;;4975845;28;20518;-87
2023/01/25 13:09:08;;;;;;;0.30;0.30;;;13.80;55.20;;;;;;4976093;28;20031;-85
2023/01/25 13:11:37;;;;;;;0.22;0.22;;;14.00;54.50;;;;;;4975692;28;20023;-86
2023/01/25 13:14:15;;;;;;;0.30;0.30;;;14.10;54.10;;;;;;4975882;28;20027;-88